Council Bluffs, IA

3:12 AM CDT on March 29, 2017 (GMT -0500)
Council Bluffs Municipal

Weather History for KCBF - April, 2013

Change the Weather History Date:

Monday, April 1, 2013

  Actual Average Record
Temperature  
Mean Temperature 30 °F -  
Max Temperature 39 °F 54 °F 89 °F (2003)
Min Temperature 21 °F 35 °F 21 °F (2013)
Degree Days  
Heating Degree Days 35    
Moisture  
Dew Point 19 °F    
Average Humidity 68    
Maximum Humidity 100    
Minimum Humidity 36    
Precipitation  
Precipitation 0.00 in - - ()
Sea Level Pressure  
Sea Level Pressure 30.26 in    
Wind  
Wind Speed 10 mph (North)    
Max Wind Speed 22 mph    
Max Gust Speed 25 mph    
Visibility 10 miles    
Events Rain , Snow    
Averages and records for this station are not official NWS values.
T = Trace of Precipitation, MM = Missing Value Source: NWS Daily Summary

Daily Weather History Graph

Daily Weather History Graph

Search for Another Location

Airport or City:

Trip Planner

Search our weather history database for the weather conditions in past years. The results will help you decide how hot, cold, wet, or windy it might be!

Date:

Astronomy

Apr. 01, 2013 Rise Set
Actual Time 7:05 AM CDT 7:48 PM CDT
Civil Twilight 6:37 AM CDT 8:16 PM CDT
Nautical Twilight 6:04 AM CDT 8:49 PM CDT
Astronomical Twilight 5:30 AM CDT 9:23 PM CDT
Moon 1:00 AM CDT (4/1) 10:50 AM CDT (4/1)
Length of Visible Light 13h 38m
Length of Day
12h 42m
Waning Gibbous, 67% of the Moon is Illuminated
Apr 1
Waning Gibbous
Apr 2
Last Quarter
Apr 10
New
Apr 18
First Quarter
Apr 25
Full

Hourly Weather History & Observations

Time (CDT) Temp. Windchill Dew Point Humidity Pressure Visibility Wind Dir Wind Speed Gust Speed Precip Events Conditions
12:15 AM 32.0 °F 22.5 °F 32.0 °F 100% 30.14 in 1.2 mi North 12.7 mph 19.6 mph N/A Snow Light Snow
12:35 AM 30.2 °F 20.8 °F 30.2 °F 100% 30.14 in 9.0 mi North 11.5 mph 17.3 mph N/A Rain Light Freezing Rain
12:55 AM 30.2 °F 21.3 °F 30.2 °F 100% 30.15 in 10.0 mi North 10.4 mph - N/A   Overcast
1:15 AM 30.2 °F 20.2 °F 28.4 °F 93% 30.16 in 10.0 mi NNW 12.7 mph 18.4 mph N/A   Mostly Cloudy
1:35 AM 30.2 °F 21.3 °F 26.6 °F 86% 30.16 in 10.0 mi North 10.4 mph - N/A   Mostly Cloudy
1:55 AM 28.4 °F 18.0 °F 26.6 °F 93% 30.17 in 10.0 mi North 12.7 mph - N/A   Scattered Clouds
2:15 AM 28.4 °F 18.0 °F 24.8 °F 86% 30.17 in 10.0 mi North 12.7 mph - N/A   Partly Cloudy
2:35 AM 28.4 °F 19.7 °F 24.8 °F 86% 30.17 in 10.0 mi North 9.2 mph - N/A   Clear
3:15 AM 26.6 °F 16.2 °F 23.0 °F 86% 30.18 in 10.0 mi North 11.5 mph - N/A   Clear
3:35 AM 26.6 °F 15.7 °F 21.2 °F 80% 30.19 in 10.0 mi North 12.7 mph - N/A   Clear
3:55 AM 24.8 °F 12.9 °F 21.2 °F 86% 30.20 in 10.0 mi North 13.8 mph - N/A   Clear
4:15 AM 24.8 °F 14.0 °F 19.4 °F 80% 30.20 in 10.0 mi North 11.5 mph - N/A   Clear
4:35 AM 23.0 °F 13.1 °F 19.4 °F 86% 30.21 in 10.0 mi North 9.2 mph - N/A   Clear
4:55 AM 23.0 °F 12.4 °F 17.6 °F 80% 30.22 in 10.0 mi North 10.4 mph - N/A   Clear
5:15 AM 23.0 °F 15.8 °F 17.6 °F 80% 30.23 in 10.0 mi North 5.8 mph - N/A   Clear
5:35 AM 23.0 °F 13.1 °F 17.6 °F 80% 30.23 in 10.0 mi North 9.2 mph - N/A   Clear
5:55 AM 21.2 °F 14.9 °F 17.6 °F 86% 30.25 in 10.0 mi NW 4.6 mph - N/A   Clear
6:15 AM 21.2 °F 12.6 °F 17.6 °F 86% 30.26 in 10.0 mi NW 6.9 mph - N/A   Clear
6:35 AM 21.2 °F 10.9 °F 17.6 °F 86% 30.25 in 10.0 mi NNW 9.2 mph - N/A   Clear
6:55 AM 21.2 °F 11.7 °F 17.6 °F 86% 30.27 in 10.0 mi NW 8.1 mph - N/A   Clear
7:15 AM 21.2 °F 12.6 °F 17.6 °F 86% 30.27 in 10.0 mi NNW 6.9 mph - N/A   Clear
7:35 AM 21.2 °F 11.7 °F 17.6 °F 86% 30.28 in 10.0 mi NNW 8.1 mph - N/A   Clear
7:55 AM 21.2 °F 10.1 °F 17.6 °F 86% 30.28 in 10.0 mi North 10.4 mph - N/A   Clear
8:15 AM 21.2 °F 10.9 °F 17.6 °F 86% 30.29 in 10.0 mi NNW 9.2 mph 16.1 mph N/A   Clear
8:35 AM 23.0 °F 10.1 °F 17.6 °F 80% 30.29 in 10.0 mi North 15.0 mph - N/A   Clear
8:55 AM 23.0 °F 12.4 °F 17.6 °F 80% 30.30 in 10.0 mi NNW 10.4 mph 18.4 mph N/A   Clear
9:15 AM 23.0 °F 12.4 °F 17.6 °F 80% 30.31 in 10.0 mi NNW 10.4 mph - N/A   Clear
9:35 AM 24.8 °F 12.9 °F 17.6 °F 74% 30.31 in 10.0 mi NNW 13.8 mph - N/A   Clear
9:55 AM 24.8 °F 16.1 °F 19.4 °F 80% 30.31 in 10.0 mi NW 8.1 mph - N/A   Partly Cloudy
10:15 AM 24.8 °F 14.0 °F 19.4 °F 80% 30.32 in 10.0 mi NNW 11.5 mph - N/A   Partly Cloudy
10:35 AM 26.6 °F 18.2 °F 21.2 °F 80% 30.32 in 10.0 mi NW 8.1 mph - N/A   Mostly Cloudy
11:15 AM 26.6 °F 16.8 °F 21.2 °F 80% 30.33 in 10.0 mi NNW 10.4 mph 17.3 mph N/A   Mostly Cloudy
11:35 AM 28.4 °F 18.5 °F 21.2 °F 74% 30.32 in 10.0 mi NNW 11.5 mph 18.4 mph N/A   Partly Cloudy
11:55 AM 28.4 °F 15.8 °F 21.2 °F 74% 30.32 in 10.0 mi NNW 18.4 mph - N/A   Clear
12:15 PM 28.4 °F 14.7 °F 21.2 °F 74% 30.31 in 10.0 mi North 21.9 mph - N/A   Clear
12:35 PM 30.2 °F 18.1 °F 23.0 °F 75% 30.31 in 10.0 mi NNW 18.4 mph 25.3 mph N/A   Clear
1:15 PM 32.0 °F 23.0 °F 23.0 °F 69% 30.31 in 10.0 mi North 11.5 mph - N/A   Clear
1:35 PM 32.0 °F 22.5 °F 21.2 °F 64% 30.31 in 10.0 mi North 12.7 mph 19.6 mph N/A   Clear
1:55 PM 33.8 °F 25.8 °F 23.0 °F 65% 30.30 in 10.0 mi North 10.4 mph 18.4 mph N/A   Clear
2:15 PM 33.8 °F 24.8 °F 19.4 °F 56% 30.30 in 10.0 mi North 12.7 mph 19.6 mph N/A   Clear
2:35 PM 35.6 °F 27.5 °F 19.4 °F 52% 30.29 in 10.0 mi North 11.5 mph 20.7 mph N/A   Clear
2:55 PM 35.6 °F 28.0 °F 19.4 °F 52% 30.29 in 10.0 mi NNW 10.4 mph 18.4 mph N/A   Clear
3:15 PM 35.6 °F 29.2 °F 17.6 °F 48% 30.28 in 10.0 mi North 8.1 mph 17.3 mph N/A   Clear
3:35 PM 37.4 °F 30.8 °F 17.6 °F 45% 30.28 in 10.0 mi NNE 9.2 mph - N/A   Clear
3:55 PM 37.4 °F 29.3 °F 17.6 °F 45% 30.27 in 10.0 mi NNE 12.7 mph - N/A   Clear
4:15 PM 37.4 °F 29.8 °F 15.8 °F 41% 30.27 in 10.0 mi NNW 11.5 mph 17.3 mph N/A   Clear
4:35 PM 37.4 °F 30.8 °F 15.8 °F 41% 30.26 in 10.0 mi North 9.2 mph 15.0 mph N/A   Clear
4:55 PM 37.4 °F 32.8 °F 14.0 °F 38% 30.26 in 10.0 mi NNW 5.8 mph 15.0 mph N/A   Clear
5:15 PM 37.4 °F 30.8 °F 15.8 °F 41% 30.25 in 10.0 mi North 9.2 mph - N/A   Clear
5:35 PM 39.2 °F 32.0 °F 14.0 °F 36% 30.25 in 10.0 mi North 11.5 mph - N/A   Clear
5:55 PM 37.4 °F 33.8 °F 14.0 °F 38% 30.25 in 10.0 mi Variable 4.6 mph 11.5 mph N/A   Clear
6:15 PM 37.4 °F 32.8 °F 14.0 °F 38% 30.25 in 10.0 mi NE 5.8 mph 11.5 mph N/A   Clear
6:35 PM 37.4 °F 30.8 °F 15.8 °F 41% 30.25 in 10.0 mi NNE 9.2 mph - N/A   Clear
6:55 PM 37.4 °F 30.8 °F 15.8 °F 41% 30.25 in 10.0 mi North 9.2 mph - N/A   Clear
7:15 PM 35.6 °F 28.6 °F 15.8 °F 44% 30.25 in 10.0 mi NNE 9.2 mph - N/A   Clear
7:35 PM 35.6 °F 29.2 °F 17.6 °F 48% 30.25 in 10.0 mi NE 8.1 mph - N/A   Clear
7:55 PM 33.8 °F 28.6 °F 17.6 °F 52% 30.25 in 10.0 mi NNE 5.8 mph - N/A   Clear
8:15 PM 32.0 °F 25.6 °F 17.6 °F 55% 30.25 in 10.0 mi NNE 6.9 mph - N/A   Clear
8:55 PM 32.0 °F - 17.6 °F 55% 30.27 in 10.0 mi Calm Calm - N/A   Clear
9:15 PM 32.0 °F - 17.6 °F 55% 30.28 in 10.0 mi Calm Calm - N/A   Clear
9:35 PM 32.0 °F - 17.6 °F 55% 30.28 in 10.0 mi Calm Calm - N/A   Clear
9:55 PM 32.0 °F - 17.6 °F 55% 30.29 in 10.0 mi Calm Calm - N/A   Clear
10:15 PM 32.0 °F - 19.4 °F 60% 30.29 in 10.0 mi Calm Calm - N/A   Clear
10:35 PM 32.0 °F - 17.6 °F 55% 30.29 in 10.0 mi Calm Calm - N/A   Clear
10:55 PM 32.0 °F - 17.6 °F 55% 30.29 in 10.0 mi Calm Calm - N/A   Clear
11:15 PM 32.0 °F - 17.6 °F 55% 30.29 in 10.0 mi Calm Calm - N/A   Clear
11:35 PM 30.2 °F - 19.4 °F 64% 30.29 in 10.0 mi Calm Calm - N/A   Clear
11:55 PM 28.4 °F - 19.4 °F 69% 30.29 in 10.0 mi Calm Calm - N/A   Clear